createdAt,value
2022-08-01T00:03:19.584Z,86.61
2022-08-01T00:08:20.501Z,73.92
2022-08-01T00:13:18.783Z,68.05
2022-08-01T00:18:20.768Z,73.80
2022-08-01T00:23:17.051Z,91.70
2022-08-01T00:28:19.582Z,72.33
2022-08-01T00:33:15.853Z,69.74
2022-08-01T00:38:18.471Z,73.79
2022-08-01T00:43:14.600Z,90.72
2022-08-01T00:48:17.601Z,69.08
2022-08-01T00:53:18.843Z,72.58
2022-08-01T00:58:13.392Z,77.57
2022-08-01T01:03:15.321Z,92.60
2022-08-01T01:08:11.635Z,69.12
2022-08-01T01:13:14.085Z,70.82
2022-08-01T01:18:10.878Z,69.65
2022-08-01T01:23:09.756Z,70.96
2022-08-01T01:28:12.896Z,68.76
2022-08-01T01:33:08.427Z,67.74
2022-08-01T01:38:11.043Z,65.60
2022-08-01T01:43:07.140Z,64.12
2022-08-01T01:48:09.736Z,67.27
2022-08-01T01:53:15.013Z,65.01
2022-08-01T01:58:05.280Z,66.53
2022-08-01T02:03:04.890Z,66.84
2022-08-01T02:08:04.999Z,65.87
2022-08-01T02:13:06.402Z,63.36
2022-08-01T02:18:02.711Z,68.61
2022-08-01T02:23:02.061Z,67.86
2022-08-01T02:28:04.582Z,67.13
2022-08-01T02:33:00.717Z,63.75
2022-08-01T02:38:00.295Z,64.88
2022-08-01T02:42:59.501Z,66.77
2022-08-01T02:48:02.115Z,65.89
2022-08-01T02:52:58.296Z,66.78
2022-08-01T02:58:00.750Z,67.62
2022-08-01T03:03:00.070Z,65.52
2022-08-01T03:07:56.482Z,69.56
2022-08-01T03:12:55.734Z,69.68
2022-08-01T03:17:59.221Z,69.60
2022-08-01T03:22:54.836Z,69.71
2022-08-01T03:27:54.359Z,68.10
2022-08-01T03:32:56.428Z,70.83
2022-08-01T03:38:15.489Z,69.12
2022-08-01T03:42:51.988Z,71.22
2022-08-01T03:47:52.137Z,71.41
2022-08-01T03:52:54.064Z,66.29
2022-08-01T03:57:53.657Z,61.00
2022-08-01T04:02:52.386Z,58.42
2022-08-01T04:07:52.183Z,62.49
2022-08-01T04:12:51.221Z,71.34
2022-08-01T04:17:47.949Z,69.09
2022-08-01T04:22:46.860Z,68.86
2022-08-01T04:27:51.951Z,68.88
2022-08-01T04:32:45.649Z,61.31
2022-08-01T04:37:45.968Z,64.53
2022-08-01T04:42:47.347Z,67.40
2022-08-01T04:47:43.427Z,67.76
2022-08-01T04:52:42.976Z,65.23
2022-08-01T04:57:45.345Z,73.89
2022-08-01T05:02:42.081Z,65.49
2022-08-01T05:07:45.665Z,64.80
2022-08-01T05:12:40.400Z,70.95
2022-08-01T05:17:40.205Z,68.82
2022-08-01T05:22:39.422Z,68.04
2022-08-01T05:27:41.683Z,60.66
2022-08-01T05:32:37.606Z,57.71
2022-08-01T05:37:40.247Z,62.06
2022-08-01T05:42:39.871Z,69.79
2022-08-01T05:47:35.991Z,58.63
2022-08-01T05:52:36.637Z,69.45
2022-08-01T05:57:37.009Z,72.68
2022-08-01T06:02:35.244Z,60.33
2022-08-01T06:07:34.328Z,67.77
2022-08-01T06:12:36.005Z,67.35
2022-08-01T06:17:32.227Z,66.81
2022-08-01T06:22:34.739Z,64.51
2022-08-01T06:27:31.371Z,66.43
2022-08-01T06:32:34.608Z,67.22
2022-08-01T06:37:32.765Z,63.01
2022-08-01T06:42:32.076Z,64.21
2022-08-01T06:47:28.313Z,55.71
2022-08-01T06:52:27.660Z,63.40
2022-08-01T07:58:04.301Z,63.41
2022-08-01T08:07:24.654Z,57.67
2022-08-01T08:12:29.005Z,54.85
2022-08-01T08:17:25.361Z,55.30
2022-08-01T08:22:22.382Z,53.15
2022-08-01T08:32:20.120Z,62.62
2022-08-01T08:37:37.973Z,61.80
2022-08-01T08:42:26.427Z,58.22
2022-08-01T08:47:19.420Z,61.39
2022-08-01T08:52:16.726Z,55.70
2022-08-01T08:57:13.434Z,52.30
2022-08-01T09:02:18.665Z,54.05
2022-08-01T09:07:15.447Z,52.97
2022-08-01T09:12:15.163Z,61.00
2022-08-01T09:17:13.956Z,59.39
2022-08-01T09:22:14.176Z,57.79
2022-08-01T09:27:10.988Z,56.58
2022-08-01T09:32:14.094Z,55.87
2022-08-01T09:37:09.909Z,53.14
2022-08-01T09:42:10.346Z,62.60
2022-08-01T09:47:09.339Z,56.91
2022-08-01T09:52:08.504Z,56.40
2022-08-01T09:57:08.069Z,53.94
2022-08-01T10:02:10.080Z,55.02
2022-08-01T10:07:07.009Z,49.97
2022-08-01T10:12:06.073Z,48.97
2022-08-01T10:17:08.768Z,52.19
2022-08-01T10:22:05.410Z,52.42
2022-08-01T10:27:06.100Z,53.43
2022-08-01T10:32:07.034Z,51.68
2022-08-01T10:37:06.516Z,55.27
2022-08-01T10:42:06.821Z,54.48
2022-08-01T10:47:02.797Z,59.62
2022-08-01T10:52:05.772Z,62.88
2022-08-01T10:57:02.572Z,61.23
2022-08-01T11:02:05.878Z,59.43
2022-08-01T11:07:05.599Z,61.33
2022-08-01T11:12:01.958Z,61.99
2022-08-01T11:17:01.743Z,58.09
2022-08-01T11:22:01.833Z,60.28
2022-08-01T11:27:03.961Z,63.60
2022-08-01T11:32:00.486Z,65.25
2022-08-01T11:37:03.434Z,64.78
2022-08-01T11:42:00.187Z,63.59
2022-08-01T11:47:02.452Z,56.61
2022-08-01T11:51:58.876Z,54.12
2022-08-01T12:22:34.262Z,57.43
2022-08-01T12:27:19.664Z,59.28
2022-08-01T12:32:01.946Z,59.91
2022-08-01T12:37:11.430Z,60.47
2022-08-01T12:42:12.863Z,61.43
2022-08-01T12:47:00.455Z,61.53
2022-08-01T12:51:59.144Z,57.47
2022-08-01T12:56:56.887Z,61.88
2022-08-01T13:01:59.459Z,67.11
2022-08-01T13:07:06.486Z,66.94
2022-08-01T13:12:04.196Z,71.85
2022-08-01T13:17:01.297Z,71.97
2022-08-01T13:21:55.530Z,68.38
2022-08-01T13:26:55.826Z,67.94
2022-08-01T13:32:01.154Z,69.08
2022-08-01T13:36:54.413Z,72.85
2022-08-01T13:41:54.251Z,66.34
2022-08-01T13:46:57.012Z,63.18
2022-08-01T13:51:53.516Z,65.90
2022-08-01T13:56:53.253Z,71.29
2022-08-01T14:01:57.747Z,66.73
2022-08-01T14:06:56.861Z,63.30
2022-08-01T14:11:55.355Z,64.24
2022-08-01T14:16:52.264Z,64.16
2022-08-01T14:21:54.865Z,69.48
2022-08-01T14:26:51.186Z,62.50
2022-08-01T14:31:51.002Z,63.04
2022-08-01T14:36:50.607Z,60.40
2022-08-01T14:41:50.258Z,59.57
2022-08-01T14:46:57.796Z,57.72
2022-08-01T14:51:49.368Z,62.41
2022-08-01T14:56:52.023Z,60.23
2022-08-01T15:01:48.901Z,62.96
2022-08-01T15:06:51.284Z,60.49
2022-08-01T15:11:47.781Z,63.55
2022-08-01T15:16:47.348Z,59.99
2022-08-01T15:21:47.283Z,64.40
2022-08-01T15:26:49.489Z,63.77
2022-08-01T15:31:46.376Z,62.65
2022-08-01T15:36:48.755Z,64.03
2022-08-01T15:41:45.111Z,63.82
2022-08-01T15:46:47.709Z,65.71
2022-08-01T15:51:47.209Z,67.41
2022-08-01T15:56:43.817Z,61.61
2022-08-01T16:01:43.443Z,64.11
2022-08-01T16:06:46.396Z,58.03
2022-08-01T16:11:43.148Z,58.89
2022-08-01T16:16:44.971Z,59.60
2022-08-01T16:21:46.030Z,60.78
2022-08-01T16:26:43.788Z,57.44
2022-08-01T16:31:58.227Z,59.33
2022-08-01T16:36:40.433Z,57.67
2022-08-01T16:41:39.741Z,58.53
2022-08-01T16:46:38.697Z,60.40
2022-08-01T16:51:42.090Z,64.08
2022-08-01T16:56:40.987Z,65.69
2022-08-01T17:02:00.075Z,65.56
2022-08-01T17:06:40.159Z,66.78
2022-08-01T17:11:36.217Z,65.22
2022-08-01T17:16:36.319Z,68.50
2022-08-01T17:21:36.402Z,63.01
2022-08-01T17:26:34.912Z,66.18
2022-08-01T17:31:37.416Z,65.26
2022-08-01T17:36:34.160Z,63.42
2022-08-01T17:41:33.269Z,60.86
2022-08-01T17:46:35.942Z,62.06
2022-08-01T17:51:32.310Z,62.88
2022-08-01T17:56:34.766Z,62.23
2022-08-01T18:01:34.054Z,62.36
2022-08-01T18:06:35.901Z,62.79
2022-08-01T18:11:37.309Z,65.29
2022-08-01T18:16:29.831Z,67.80
2022-08-01T18:21:28.833Z,64.45
2022-08-01T18:26:31.297Z,65.64
2022-08-01T18:31:27.525Z,62.25
2022-08-01T18:36:32.891Z,64.60
2022-08-01T18:41:29.613Z,66.95
2022-08-01T18:46:25.745Z,65.77
2022-08-01T18:51:28.530Z,67.89
2022-08-01T18:56:24.580Z,67.38
2022-08-01T19:01:27.343Z,66.97
2022-08-01T19:06:26.658Z,65.68
2022-08-01T19:11:23.000Z,64.01
2022-08-01T19:16:22.416Z,65.18
2022-08-01T19:21:25.036Z,65.93
2022-08-01T19:26:20.983Z,66.96
2022-08-01T19:31:20.486Z,65.82
2022-08-01T19:36:19.861Z,66.63
2022-08-01T19:41:19.281Z,64.42
2022-08-01T19:46:21.700Z,61.49
2022-08-01T19:51:17.824Z,62.72
2022-08-01T19:56:20.359Z,64.54
2022-08-01T20:01:19.686Z,63.02
2022-08-01T20:06:19.449Z,65.39
2022-08-01T20:11:18.852Z,95.75
2022-08-01T20:16:14.729Z,72.83
2022-08-01T20:21:17.103Z,91.43
2022-08-01T20:26:13.248Z,131.64
2022-08-01T20:31:13.743Z,114.48
2022-08-01T20:36:25.085Z,77.25
2022-08-01T20:41:11.544Z,94.98
2022-08-01T20:46:13.655Z,72.32
2022-08-01T20:51:11.507Z,76.16
2022-08-01T20:56:12.781Z,74.56
2022-08-01T21:01:09.654Z,76.16
2022-08-01T21:06:10.994Z,75.98
2022-08-01T21:11:07.316Z,76.69
2022-08-01T21:16:23.572Z,79.09
2022-08-01T21:21:10.174Z,80.95
2022-08-01T21:26:05.180Z,80.93
2022-08-01T21:31:07.785Z,80.67
2022-08-01T21:36:06.495Z,79.95
2022-08-01T21:41:03.076Z,81.76
2022-08-01T21:46:05.347Z,83.33
2022-08-01T21:51:01.781Z,83.29
2022-08-01T21:56:14.509Z,80.53
2022-08-01T22:01:00.052Z,79.45
2022-08-01T22:06:02.121Z,75.46
2022-08-01T22:28:03.183Z,63.66
2022-08-01T22:33:27.053Z,78.62
2022-08-01T22:38:29.283Z,80.09
2022-08-01T22:43:25.115Z,77.51
2022-08-01T22:48:24.405Z,77.40
2022-08-01T22:53:26.781Z,79.75
2022-08-01T22:58:23.005Z,82.52
2022-08-01T23:03:22.242Z,80.98
2022-08-01T23:08:24.648Z,82.97
2022-08-01T23:13:20.468Z,82.82
2022-08-01T23:18:22.974Z,82.33
2022-08-01T23:23:19.514Z,79.57
2022-08-01T23:28:21.455Z,81.76
2022-08-01T23:33:17.448Z,80.10
2022-08-01T23:38:19.895Z,80.68
2022-08-01T23:43:16.867Z,81.51
2022-08-01T23:48:15.571Z,84.31
2022-08-01T23:53:14.708Z,82.82
2022-08-01T23:58:13.600Z,82.85
